createdAt,value
2023-05-17T00:02:01.535Z,68.25
2023-05-17T00:04:28.739Z,68.27
2023-05-17T00:06:55.606Z,68.26
2023-05-17T00:09:22.355Z,68.47
2023-05-17T00:11:49.147Z,68.38
2023-05-17T00:14:16.230Z,68.29
2023-05-17T00:16:43.108Z,68.18
2023-05-17T00:19:10.192Z,68.37
2023-05-17T00:21:37.318Z,68.49
2023-05-17T00:24:04.387Z,68.57
2023-05-17T00:26:31.753Z,68.54
2023-05-17T00:28:58.525Z,68.38
2023-05-17T00:31:25.352Z,68.51
2023-05-17T00:33:52.190Z,68.68
2023-05-17T00:36:19.023Z,68.55
2023-05-17T00:38:45.826Z,68.75
2023-05-17T00:41:13.202Z,68.99
2023-05-17T00:43:40.212Z,68.97
2023-05-17T00:46:07.088Z,68.94
2023-05-17T00:48:34.103Z,68.87
2023-05-17T00:51:01.219Z,68.71
2023-05-17T00:53:29.077Z,69.08
2023-05-17T00:55:56.112Z,69.45
2023-05-17T00:58:24.192Z,69.79
2023-05-17T01:00:52.299Z,69.22
2023-05-17T01:03:19.249Z,68.95
2023-05-17T01:05:46.074Z,68.85
2023-05-17T01:08:12.850Z,69.02
2023-05-17T01:10:46.511Z,69.76
2023-05-17T01:13:23.014Z,70.86
2023-05-17T01:16:01.225Z,71.01
2023-05-17T01:18:46.992Z,70.48
2023-05-17T01:21:37.429Z,71.11
2023-05-17T01:24:44.418Z,71.20
2023-05-17T01:27:14.715Z,70.01
2023-05-17T01:29:44.877Z,68.74
2023-05-17T01:32:13.810Z,68.06
2023-05-17T01:34:41.817Z,68.73
2023-05-17T01:37:08.600Z,68.79
2023-05-17T01:39:36.444Z,68.58
2023-05-17T01:42:16.396Z,68.25
2023-05-17T01:44:52.219Z,67.55
2023-05-17T01:47:36.078Z,67.26
2023-05-17T01:50:05.230Z,66.95
2023-05-17T01:52:34.783Z,66.96
2023-05-17T01:55:10.697Z,67.15
2023-05-17T01:57:41.271Z,66.96
2023-05-17T02:00:09.635Z,67.07
2023-05-17T02:02:42.372Z,66.56
2023-05-17T02:05:09.602Z,66.57
2023-05-17T02:07:39.909Z,66.42
2023-05-17T02:10:07.227Z,65.76
2023-05-17T02:12:34.054Z,64.91
2023-05-17T02:15:01.442Z,64.09
2023-05-17T02:17:28.508Z,63.94
2023-05-17T02:19:55.305Z,63.31
2023-05-17T02:22:22.071Z,63.15
2023-05-17T02:24:49.151Z,62.89
2023-05-17T02:27:16.110Z,62.75
2023-05-17T02:29:43.127Z,62.28
2023-05-17T02:32:09.881Z,61.73
2023-05-17T02:34:36.756Z,61.49
2023-05-17T02:37:03.630Z,61.19
2023-05-17T02:39:32.240Z,60.94
2023-05-17T02:41:59.210Z,60.58
2023-05-17T02:44:27.392Z,59.78
2023-05-17T02:46:54.245Z,59.31
2023-05-17T02:49:21.099Z,59.16
2023-05-17T02:51:47.858Z,58.90
2023-05-17T02:54:14.762Z,59.02
2023-05-17T02:56:41.731Z,59.23
2023-05-17T02:59:08.767Z,59.15
2023-05-17T03:01:36.808Z,59.15
2023-05-17T03:04:04.651Z,59.50
2023-05-17T03:06:31.684Z,59.75
2023-05-17T03:08:58.707Z,59.98
2023-05-17T03:11:26.008Z,59.81
2023-05-17T03:13:54.835Z,59.97
2023-05-17T03:16:26.617Z,59.57
2023-05-17T03:18:53.601Z,59.40
2023-05-17T03:21:20.559Z,59.65
2023-05-17T03:23:50.028Z,59.85
2023-05-17T03:26:19.746Z,59.70
2023-05-17T03:28:49.836Z,59.98
2023-05-17T03:31:19.012Z,59.48
2023-05-17T03:33:46.277Z,59.76
2023-05-17T03:36:13.981Z,60.29
2023-05-17T03:38:40.811Z,60.90
2023-05-17T03:41:07.813Z,61.47
2023-05-17T03:43:34.793Z,62.04
2023-05-17T03:46:01.899Z,62.03
2023-05-17T03:48:30.359Z,61.17
2023-05-17T03:50:57.593Z,60.98
2023-05-17T03:53:24.397Z,60.24
2023-05-17T03:55:51.264Z,59.27
2023-05-17T03:58:18.469Z,58.74
2023-05-17T04:00:45.484Z,58.24
2023-05-17T04:03:17.427Z,58.26
2023-05-17T04:05:46.683Z,57.78
2023-05-17T04:08:13.875Z,57.69
2023-05-17T04:10:42.228Z,57.58
2023-05-17T04:13:09.833Z,56.18
2023-05-17T04:15:38.203Z,54.88
2023-05-17T04:18:06.399Z,55.23
2023-05-17T04:20:33.318Z,55.05
2023-05-17T04:23:00.308Z,54.75
2023-05-17T04:25:29.943Z,54.63
2023-05-17T04:27:57.053Z,53.81
2023-05-17T04:30:24.280Z,52.97
2023-05-17T04:32:51.136Z,52.89
2023-05-17T04:35:17.905Z,52.33
2023-05-17T04:37:47.955Z,52.55
2023-05-17T04:40:20.691Z,52.30
2023-05-17T04:42:48.764Z,51.54
2023-05-17T04:45:17.770Z,51.49
2023-05-17T04:47:44.914Z,50.91
2023-05-17T04:50:12.588Z,50.68
2023-05-17T04:52:39.918Z,50.16
2023-05-17T04:55:08.106Z,49.84
2023-05-17T04:57:36.122Z,49.65
2023-05-17T05:00:14.158Z,49.13
2023-05-17T05:02:42.759Z,48.91
2023-05-17T05:05:11.347Z,48.39
2023-05-17T05:07:40.117Z,48.10
2023-05-17T05:10:08.884Z,47.93
2023-05-17T05:12:36.425Z,47.44
2023-05-17T05:15:03.296Z,47.45
2023-05-17T05:17:31.320Z,47.05
2023-05-17T05:19:58.392Z,46.92
2023-05-17T05:22:26.309Z,47.35
2023-05-17T05:24:53.847Z,45.49
2023-05-17T05:27:20.773Z,45.69
2023-05-17T05:29:47.839Z,45.53
2023-05-17T05:32:16.223Z,45.85
2023-05-17T05:34:45.908Z,45.57
2023-05-17T05:37:14.431Z,45.67
2023-05-17T05:39:42.402Z,45.21
2023-05-17T05:42:09.362Z,45.25
2023-05-17T05:44:36.773Z,45.09
2023-05-17T05:47:04.046Z,44.67
2023-05-17T05:49:31.035Z,44.51
2023-05-17T05:51:58.106Z,44.62
2023-05-17T05:54:27.569Z,44.26
2023-05-17T05:56:55.266Z,44.15
2023-05-17T05:59:22.266Z,44.14
2023-05-17T06:01:49.141Z,43.70
2023-05-17T06:04:16.003Z,43.69
2023-05-17T06:06:42.923Z,43.43
2023-05-17T06:09:12.341Z,43.33
2023-05-17T06:11:39.898Z,43.26
2023-05-17T06:14:06.847Z,43.54
2023-05-17T06:16:33.991Z,42.86
2023-05-17T06:19:01.159Z,42.84
2023-05-17T06:21:28.106Z,42.71
2023-05-17T06:23:55.344Z,42.87
2023-05-17T06:26:22.103Z,42.82
2023-05-17T06:28:48.941Z,42.38
2023-05-17T06:31:16.922Z,42.11
2023-05-17T06:33:44.218Z,41.17
2023-05-17T06:36:11.072Z,41.29
2023-05-17T06:38:37.862Z,41.15
2023-05-17T06:41:04.661Z,41.28
2023-05-17T06:43:31.539Z,41.12
2023-05-17T06:45:58.334Z,40.34
2023-05-17T06:48:25.464Z,40.39
2023-05-17T06:50:52.372Z,40.15
2023-05-17T06:53:19.204Z,40.60
2023-05-17T06:55:46.076Z,40.07
2023-05-17T06:58:12.958Z,39.93
2023-05-17T07:00:39.817Z,39.49
2023-05-17T07:03:06.769Z,39.79
2023-05-17T07:05:34.072Z,39.48
2023-05-17T07:08:01.291Z,39.73
2023-05-17T07:10:28.109Z,39.08
2023-05-17T07:12:54.948Z,39.26
2023-05-17T07:15:21.802Z,38.89
2023-05-17T07:17:48.643Z,38.89
2023-05-17T07:20:15.518Z,38.43
2023-05-17T07:22:42.463Z,38.50
2023-05-17T07:25:10.238Z,38.46
2023-05-17T07:27:37.202Z,38.19
2023-05-17T07:30:04.586Z,37.68
2023-05-17T07:32:31.428Z,38.00
2023-05-17T07:34:58.338Z,38.16
2023-05-17T07:37:25.463Z,38.20
2023-05-17T07:39:54.794Z,38.13
2023-05-17T07:42:21.588Z,38.21
2023-05-17T07:44:51.889Z,37.96
2023-05-17T07:47:19.033Z,38.04
2023-05-17T07:49:45.932Z,37.42
2023-05-17T07:52:12.834Z,37.23
2023-05-17T07:54:39.585Z,37.88
2023-05-17T07:57:06.305Z,36.93
2023-05-17T07:59:33.347Z,36.76
2023-05-17T08:02:00.293Z,36.75
2023-05-17T08:04:27.066Z,36.71
2023-05-17T08:06:55.406Z,36.67
2023-05-17T08:09:22.210Z,36.60
2023-05-17T08:11:49.116Z,36.48
2023-05-17T08:14:16.594Z,36.34
2023-05-17T08:16:45.258Z,36.30
2023-05-17T08:19:13.488Z,36.21
2023-05-17T08:21:41.994Z,36.15
2023-05-17T08:24:09.540Z,35.45
2023-05-17T08:26:36.492Z,35.34
2023-05-17T08:29:04.778Z,34.55
2023-05-17T08:31:32.705Z,34.41
2023-05-17T08:33:59.813Z,34.45
2023-05-17T08:36:26.984Z,33.66
2023-05-17T08:38:53.961Z,33.70
2023-05-17T08:41:20.961Z,33.84
2023-05-17T08:43:49.619Z,33.44
2023-05-17T08:46:21.678Z,33.35
2023-05-17T08:48:53.348Z,33.25
2023-05-17T08:51:21.910Z,33.13
2023-05-17T08:53:50.571Z,32.94
2023-05-17T08:56:21.586Z,33.25
2023-05-17T08:58:56.874Z,33.02
2023-05-17T09:01:26.738Z,34.32
2023-05-17T09:03:54.521Z,40.33
2023-05-17T09:06:22.859Z,39.20
2023-05-17T09:08:58.541Z,36.24
2023-05-17T09:11:27.941Z,39.80
2023-05-17T09:13:59.110Z,35.61
2023-05-17T09:16:28.484Z,37.44
2023-05-17T09:18:56.814Z,39.32
2023-05-17T09:21:25.133Z,37.40
2023-05-17T09:24:04.679Z,40.09
2023-05-17T09:26:46.230Z,38.02
2023-05-17T09:29:16.002Z,39.20
2023-05-17T09:31:44.330Z,36.73
2023-05-17T09:34:11.585Z,36.18
2023-05-17T09:36:42.901Z,36.35
2023-05-17T09:39:13.473Z,36.60
2023-05-17T09:41:51.142Z,36.75
2023-05-17T09:44:18.032Z,38.48
2023-05-17T09:46:50.184Z,39.11
2023-05-17T09:49:18.263Z,39.09
2023-05-17T09:51:47.720Z,35.16
2023-05-17T09:54:14.865Z,36.25
2023-05-17T09:56:42.067Z,35.54
2023-05-17T09:59:16.774Z,36.80
2023-05-17T10:01:45.812Z,36.19
2023-05-17T10:04:14.497Z,36.17
2023-05-17T10:06:49.847Z,36.32
2023-05-17T10:09:21.753Z,36.18
2023-05-17T10:11:51.151Z,36.99
2023-05-17T10:14:23.618Z,37.57
2023-05-17T10:16:51.884Z,36.20
2023-05-17T10:19:21.191Z,37.04
2023-05-17T10:21:50.862Z,36.08
2023-05-17T10:24:17.928Z,36.53
2023-05-17T10:26:45.564Z,36.28
2023-05-17T10:29:12.578Z,36.45
2023-05-17T10:31:43.654Z,36.76
2023-05-17T10:34:18.449Z,37.77
2023-05-17T10:36:46.492Z,38.25
2023-05-17T10:39:13.552Z,38.01
2023-05-17T10:41:45.859Z,37.73
2023-05-17T10:44:16.130Z,36.43
2023-05-17T10:46:55.431Z,37.31
2023-05-17T10:49:33.362Z,37.85
2023-05-17T10:52:12.702Z,37.72
2023-05-17T10:54:42.728Z,38.19
2023-05-17T10:57:20.193Z,38.49
2023-05-17T11:00:03.060Z,38.86
2023-05-17T11:02:31.494Z,39.13
2023-05-17T11:05:00.582Z,38.70
2023-05-17T11:07:33.803Z,39.29
2023-05-17T11:10:03.148Z,38.91
2023-05-17T11:12:33.871Z,39.09
2023-05-17T11:15:08.173Z,39.13
2023-05-17T11:17:54.826Z,38.92
2023-05-17T11:20:28.303Z,38.74
2023-05-17T11:23:17.423Z,38.71
2023-05-17T11:25:45.769Z,38.42
2023-05-17T11:28:20.123Z,39.64
2023-05-17T11:30:53.934Z,38.80
2023-05-17T11:33:38.508Z,38.70
2023-05-17T11:36:13.495Z,38.37
2023-05-17T11:38:40.346Z,38.67
2023-05-17T11:43:49.819Z,39.94
2023-05-17T11:46:21.825Z,37.40
2023-05-17T11:48:53.973Z,37.34
2023-05-17T11:51:24.610Z,37.89
2023-05-17T11:53:55.601Z,37.79
2023-05-17T11:56:35.637Z,37.60
2023-05-17T11:59:10.331Z,37.19
2023-05-17T12:01:46.162Z,35.65
2023-05-17T12:04:13.727Z,35.40
2023-05-17T12:06:41.106Z,34.29
2023-05-17T12:09:11.116Z,33.01
2023-05-17T12:11:39.611Z,33.93
2023-05-17T12:14:07.327Z,32.87
2023-05-17T12:16:36.630Z,32.69
2023-05-17T12:19:03.767Z,33.69
2023-05-17T12:21:30.960Z,33.54
2023-05-17T12:23:57.802Z,33.25
2023-05-17T12:26:24.923Z,34.19
2023-05-17T12:28:56.349Z,35.77
2023-05-17T12:31:35.680Z,35.13
2023-05-17T12:34:06.062Z,35.77
2023-05-17T12:36:34.188Z,35.92
2023-05-17T12:39:02.216Z,33.91
2023-05-17T12:41:30.164Z,32.51
2023-05-17T12:44:13.689Z,32.64
2023-05-17T12:46:42.982Z,32.37
2023-05-17T12:49:11.925Z,32.06
2023-05-17T12:51:46.058Z,31.35
2023-05-17T12:54:16.280Z,32.60
2023-05-17T12:56:46.764Z,29.97
2023-05-17T12:59:14.819Z,34.81
2023-05-17T13:01:52.160Z,37.43
2023-05-17T13:04:21.167Z,35.83
2023-05-17T13:06:51.711Z,39.44
2023-05-17T13:09:20.778Z,41.53
2023-05-17T13:11:59.391Z,43.25
2023-05-17T13:14:45.810Z,45.08
2023-05-17T13:17:25.574Z,45.15
2023-05-17T13:19:53.108Z,44.27
2023-05-17T13:22:19.995Z,43.88
2023-05-17T13:24:46.793Z,44.80
2023-05-17T13:27:13.841Z,44.52
2023-05-17T13:29:42.844Z,44.78
2023-05-17T13:32:12.441Z,44.44
2023-05-17T13:34:40.563Z,43.58
2023-05-17T13:37:10.300Z,44.08
2023-05-17T13:39:38.720Z,45.03
2023-05-17T13:42:05.769Z,42.30
2023-05-17T13:44:32.983Z,41.59
2023-05-17T13:47:00.006Z,41.41
2023-05-17T13:49:28.311Z,42.48
2023-05-17T13:51:55.109Z,41.85
2023-05-17T13:54:23.275Z,41.45
2023-05-17T13:56:50.127Z,41.66
2023-05-17T13:59:16.954Z,41.98
2023-05-17T14:01:43.921Z,42.83
2023-05-17T14:04:10.973Z,42.54
2023-05-17T14:06:39.136Z,41.76
2023-05-17T14:09:06.446Z,41.61
2023-05-17T14:11:34.387Z,41.26
2023-05-17T14:14:01.399Z,40.91
2023-05-17T14:16:28.351Z,40.90
2023-05-17T14:18:55.897Z,40.80
2023-05-17T14:21:22.844Z,40.93
2023-05-17T14:23:49.731Z,40.74
2023-05-17T14:26:16.581Z,41.54
2023-05-17T14:28:43.392Z,41.39
2023-05-17T14:31:10.764Z,40.58
2023-05-17T14:33:37.776Z,40.08
2023-05-17T14:36:04.938Z,41.21
2023-05-17T14:38:31.840Z,41.24
2023-05-17T14:41:00.898Z,40.59
2023-05-17T14:43:28.762Z,41.47
2023-05-17T14:45:55.750Z,40.80
2023-05-17T14:48:22.916Z,41.15
2023-05-17T14:50:49.900Z,41.54
2023-05-17T14:53:16.724Z,41.98
2023-05-17T14:55:43.775Z,42.20
2023-05-17T14:58:13.574Z,41.84
2023-05-17T15:00:41.914Z,42.29
2023-05-17T15:03:09.237Z,42.65
2023-05-17T15:05:37.813Z,42.45
2023-05-17T15:08:04.890Z,42.43
2023-05-17T15:10:32.135Z,42.26
2023-05-17T15:12:58.997Z,43.43
2023-05-17T15:15:25.861Z,44.08
2023-05-17T15:17:53.013Z,44.31
2023-05-17T15:20:20.479Z,44.02
2023-05-17T15:22:48.491Z,45.23
2023-05-17T15:25:16.138Z,45.75
2023-05-17T15:27:42.927Z,46.49
2023-05-17T15:30:12.509Z,46.68
2023-05-17T15:32:40.224Z,47.61
2023-05-17T15:35:07.847Z,47.54
2023-05-17T15:37:34.713Z,47.75
2023-05-17T15:40:09.820Z,48.52
2023-05-17T15:42:37.315Z,49.29
2023-05-17T15:45:04.657Z,48.79
2023-05-17T15:47:42.418Z,49.09
2023-05-17T15:50:10.766Z,49.33
2023-05-17T15:52:37.575Z,49.50
2023-05-17T15:55:04.755Z,50.29
2023-05-17T15:57:31.559Z,49.75
2023-05-17T15:59:58.318Z,49.52
2023-05-17T16:02:25.986Z,49.48
2023-05-17T16:04:52.805Z,49.86
2023-05-17T16:07:19.600Z,50.94
2023-05-17T16:09:46.442Z,50.07
2023-05-17T16:12:13.435Z,50.10
2023-05-17T16:14:40.830Z,50.65
2023-05-17T16:17:07.744Z,50.38
2023-05-17T16:19:34.787Z,50.33
2023-05-17T16:22:02.590Z,51.02
2023-05-17T16:24:29.557Z,51.54
2023-05-17T16:26:56.756Z,51.54
2023-05-17T16:29:23.580Z,52.08
2023-05-17T16:31:51.592Z,52.86
2023-05-17T16:34:18.651Z,53.17
2023-05-17T16:36:47.860Z,53.11
2023-05-17T16:39:14.644Z,53.32
2023-05-17T16:41:41.665Z,52.62
2023-05-17T16:44:08.575Z,51.59
2023-05-17T16:46:37.543Z,51.48
2023-05-17T16:49:04.788Z,51.71
2023-05-17T16:51:31.848Z,52.47
2023-05-17T16:53:58.731Z,52.62
2023-05-17T16:56:25.656Z,52.79
2023-05-17T16:58:52.431Z,53.41
2023-05-17T17:01:19.333Z,53.19
2023-05-17T17:03:46.340Z,53.43
2023-05-17T17:06:13.234Z,53.27
2023-05-17T17:08:40.083Z,53.17
2023-05-17T17:11:06.928Z,53.57
2023-05-17T17:13:34.076Z,53.83
2023-05-17T17:16:01.370Z,54.19
2023-05-17T17:18:29.191Z,53.83
2023-05-17T17:20:57.303Z,53.95
2023-05-17T17:23:24.154Z,53.86
2023-05-17T17:25:51.142Z,54.04
2023-05-17T17:28:17.922Z,54.60
2023-05-17T17:30:44.780Z,54.65
2023-05-17T17:33:11.711Z,54.44
2023-05-17T17:35:38.851Z,54.25
2023-05-17T17:38:05.944Z,54.39
2023-05-17T17:40:33.083Z,54.17
2023-05-17T17:43:00.082Z,53.87
2023-05-17T17:45:26.897Z,54.20
2023-05-17T17:47:53.889Z,54.68
2023-05-17T17:50:20.898Z,54.37
2023-05-17T17:52:48.169Z,54.53
2023-05-17T17:55:15.443Z,54.70
2023-05-17T17:57:42.169Z,54.70
2023-05-17T18:00:11.837Z,54.32
2023-05-17T18:02:39.942Z,54.30
2023-05-17T18:05:07.240Z,54.27
2023-05-17T18:07:34.131Z,54.83
2023-05-17T18:10:01.989Z,55.02
2023-05-17T18:12:28.958Z,55.68
2023-05-17T18:14:56.016Z,55.57
2023-05-17T18:17:23.149Z,55.39
2023-05-17T18:19:50.225Z,55.46
2023-05-17T18:22:17.115Z,55.47
2023-05-17T18:24:44.053Z,55.58
2023-05-17T18:27:13.119Z,56.21
2023-05-17T18:29:41.264Z,56.21
2023-05-17T18:32:09.156Z,56.14
2023-05-17T18:34:36.340Z,56.18
2023-05-17T18:37:03.463Z,55.69
2023-05-17T18:39:30.751Z,55.39
2023-05-17T18:41:57.546Z,55.48
2023-05-17T18:44:24.371Z,55.37
2023-05-17T18:46:51.479Z,55.70
2023-05-17T18:49:18.312Z,55.65
2023-05-17T18:51:45.396Z,55.65
2023-05-17T18:54:12.313Z,56.57
2023-05-17T18:56:39.258Z,56.19
2023-05-17T18:59:06.190Z,56.03
2023-05-17T19:01:33.332Z,56.17
2023-05-17T19:04:00.297Z,55.89
2023-05-17T19:06:31.731Z,55.75
2023-05-17T19:08:59.028Z,55.69
2023-05-17T19:11:28.616Z,55.85
2023-05-17T19:13:56.004Z,55.76
2023-05-17T19:16:22.876Z,55.78
2023-05-17T19:18:50.237Z,55.90
2023-05-17T19:21:17.405Z,55.95
2023-05-17T19:23:44.780Z,56.09
2023-05-17T19:26:11.878Z,57.57
2023-05-17T19:28:39.987Z,56.23
2023-05-17T19:31:08.316Z,56.21
2023-05-17T19:33:37.615Z,56.27
2023-05-17T19:36:04.705Z,56.35
2023-05-17T19:38:33.321Z,56.34
2023-05-17T19:41:01.526Z,56.62
2023-05-17T19:43:28.641Z,56.62
2023-05-17T19:45:55.904Z,56.73
2023-05-17T19:48:24.301Z,56.85
2023-05-17T19:50:51.542Z,56.93
2023-05-17T19:53:18.477Z,56.95
2023-05-17T19:55:45.506Z,57.23
2023-05-17T19:58:12.368Z,57.02
2023-05-17T20:00:39.300Z,57.15
2023-05-17T20:03:06.231Z,57.38
2023-05-17T20:05:33.237Z,57.43
2023-05-17T20:08:02.763Z,57.51
2023-05-17T20:10:32.598Z,57.67
2023-05-17T20:12:59.853Z,57.66
2023-05-17T20:15:26.722Z,57.89
2023-05-17T20:17:53.689Z,58.17
2023-05-17T20:20:20.835Z,58.10
2023-05-17T20:22:48.183Z,58.16
2023-05-17T20:25:15.063Z,58.11
2023-05-17T20:27:41.901Z,58.12
2023-05-17T20:30:09.377Z,58.38
2023-05-17T20:32:36.257Z,58.37
2023-05-17T20:35:03.167Z,58.50
2023-05-17T20:37:29.974Z,58.50
2023-05-17T20:39:59.883Z,58.59
2023-05-17T20:42:28.220Z,58.72
2023-05-17T20:44:55.638Z,58.83
2023-05-17T20:47:22.867Z,58.85
2023-05-17T20:49:50.449Z,58.87
2023-05-17T20:52:31.263Z,59.05
2023-05-17T20:55:05.083Z,59.17
2023-05-17T20:57:32.054Z,58.84
2023-05-17T20:59:58.937Z,59.28
2023-05-17T21:02:25.922Z,59.22
2023-05-17T21:04:54.556Z,59.20
2023-05-17T21:07:26.394Z,59.32
2023-05-17T21:09:53.254Z,59.36
2023-05-17T21:12:21.383Z,59.49
2023-05-17T21:14:59.848Z,59.48
2023-05-17T21:17:35.014Z,59.39
2023-05-17T21:20:01.967Z,59.31
2023-05-17T21:22:28.740Z,59.46
2023-05-17T21:24:55.629Z,59.80
2023-05-17T21:27:22.404Z,59.59
2023-05-17T21:29:49.200Z,59.75
2023-05-17T21:32:17.181Z,59.68
2023-05-17T21:34:44.938Z,59.96
2023-05-17T21:37:12.000Z,60.23
2023-05-17T21:39:38.749Z,60.21
2023-05-17T21:42:05.942Z,60.28
2023-05-17T21:44:32.868Z,60.19
2023-05-17T21:46:59.961Z,60.49
2023-05-17T21:49:28.507Z,60.42
2023-05-17T21:51:55.438Z,61.10
2023-05-17T21:54:24.486Z,60.66
2023-05-17T21:56:51.612Z,60.59
2023-05-17T21:59:18.586Z,60.27
2023-05-17T22:01:45.897Z,60.59
2023-05-17T22:04:12.908Z,60.67
2023-05-17T22:06:39.722Z,61.79
2023-05-17T22:09:07.234Z,61.99
2023-05-17T22:11:38.325Z,62.70
2023-05-17T22:14:08.392Z,62.94
2023-05-17T22:16:36.252Z,63.53
2023-05-17T22:19:05.482Z,63.24
2023-05-17T22:21:33.049Z,63.51
2023-05-17T22:23:59.989Z,63.67
2023-05-17T22:26:27.736Z,64.04
2023-05-17T22:28:55.745Z,64.46
2023-05-17T22:31:22.943Z,64.40
2023-05-17T22:33:52.061Z,64.53
2023-05-17T22:36:19.544Z,64.26
2023-05-17T22:38:46.736Z,64.40
2023-05-17T22:41:13.832Z,63.87
2023-05-17T22:43:40.703Z,63.72
2023-05-17T22:46:07.627Z,63.66
2023-05-17T22:48:37.365Z,64.07
2023-05-17T22:51:04.585Z,64.11
2023-05-17T22:53:31.664Z,64.05
2023-05-17T22:55:58.788Z,64.56
2023-05-17T22:58:25.928Z,64.22
2023-05-17T23:00:53.175Z,64.97
2023-05-17T23:03:20.479Z,64.68
2023-05-17T23:05:47.512Z,64.81
2023-05-17T23:08:17.846Z,65.24
2023-05-17T23:10:44.859Z,65.11
2023-05-17T23:13:12.510Z,64.54
2023-05-17T23:15:40.902Z,64.48
2023-05-17T23:18:08.210Z,64.20
2023-05-17T23:20:35.214Z,64.54
2023-05-17T23:23:02.163Z,64.14
2023-05-17T23:25:29.708Z,64.07
2023-05-17T23:27:59.460Z,64.20
2023-05-17T23:30:26.449Z,64.26
2023-05-17T23:32:55.248Z,65.39
2023-05-17T23:35:23.865Z,64.21
2023-05-17T23:37:50.748Z,63.83
2023-05-17T23:40:17.612Z,63.88
2023-05-17T23:42:44.560Z,64.19
2023-05-17T23:45:11.441Z,64.27
2023-05-17T23:47:40.802Z,64.26
2023-05-17T23:50:11.944Z,64.20
2023-05-17T23:52:39.215Z,64.24
2023-05-17T23:55:09.225Z,64.15
2023-05-17T23:57:36.169Z,64.52
